sensor_id;sensor_type;location;lat;lon;timestamp;P1;durP1;ratioP1;P2;durP2;ratioP2
21274;SDS011;36472;52.170;20.884;2023-02-28T00:00:32;13.73;;;8.90;;
21274;SDS011;36472;52.170;20.884;2023-02-28T00:03:15;15.43;;;9.40;;
21274;SDS011;36472;52.170;20.884;2023-02-28T00:05:44;14.73;;;9.70;;
21274;SDS011;36472;52.170;20.884;2023-02-28T00:08:14;14.80;;;9.47;;
21274;SDS011;36472;52.170;20.884;2023-02-28T00:10:44;18.20;;;10.23;;
21274;SDS011;36472;52.170;20.884;2023-02-28T00:13:13;17.80;;;11.33;;
21274;SDS011;36472;52.170;20.884;2023-02-28T00:15:42;16.00;;;10.33;;
21274;SDS011;36472;52.170;20.884;2023-02-28T00:18:12;16.57;;;11.03;;
21274;SDS011;36472;52.170;20.884;2023-02-28T00:20:41;16.47;;;10.40;;
21274;SDS011;36472;52.170;20.884;2023-02-28T00:23:10;15.33;;;10.93;;
21274;SDS011;36472;52.170;20.884;2023-02-28T00:25:39;16.27;;;10.97;;
21274;SDS011;36472;52.170;20.884;2023-02-28T00:28:09;16.03;;;10.73;;
21274;SDS011;36472;52.170;20.884;2023-02-28T00:30:38;16.90;;;10.50;;
21274;SDS011;36472;52.170;20.884;2023-02-28T00:33:07;14.07;;;10.47;;
21274;SDS011;36472;52.170;20.884;2023-02-28T00:35:36;14.10;;;10.90;;
21274;SDS011;36472;52.170;20.884;2023-02-28T00:38:08;14.57;;;10.43;;
21274;SDS011;36472;52.170;20.884;2023-02-28T00:40:37;18.00;;;10.50;;
21274;SDS011;36472;52.170;20.884;2023-02-28T00:43:06;16.10;;;10.47;;
21274;SDS011;36472;52.170;20.884;2023-02-28T00:45:37;16.47;;;10.53;;
21274;SDS011;36472;52.170;20.884;2023-02-28T00:48:06;13.93;;;10.27;;
21274;SDS011;36472;52.170;20.884;2023-02-28T00:50:38;13.60;;;10.00;;
21274;SDS011;36472;52.170;20.884;2023-02-28T00:53:07;18.77;;;10.33;;
21274;SDS011;36472;52.170;20.884;2023-02-28T00:55:36;14.27;;;9.33;;
21274;SDS011;36472;52.170;20.884;2023-02-28T00:58:05;17.10;;;10.10;;
21274;SDS011;36472;52.170;20.884;2023-02-28T01:00:34;16.17;;;10.47;;
21274;SDS011;36472;52.170;20.884;2023-02-28T01:03:04;15.30;;;10.17;;
21274;SDS011;36472;52.170;20.884;2023-02-28T01:05:33;15.87;;;10.07;;
21274;SDS011;36472;52.170;20.884;2023-02-28T01:08:03;16.43;;;9.67;;
21274;SDS011;36472;52.170;20.884;2023-02-28T01:10:33;16.77;;;9.30;;
21274;SDS011;36472;52.170;20.884;2023-02-28T01:13:03;14.07;;;10.13;;
21274;SDS011;36472;52.170;20.884;2023-02-28T01:15:32;16.27;;;10.07;;
21274;SDS011;36472;52.170;20.884;2023-02-28T01:18:01;14.77;;;10.23;;
21274;SDS011;36472;52.170;20.884;2023-02-28T01:20:32;16.43;;;10.73;;
21274;SDS011;36472;52.170;20.884;2023-02-28T01:23:01;14.07;;;10.17;;
21274;SDS011;36472;52.170;20.884;2023-02-28T01:25:30;15.87;;;10.70;;
21274;SDS011;36472;52.170;20.884;2023-02-28T01:27:59;19.40;;;12.03;;
21274;SDS011;36472;52.170;20.884;2023-02-28T01:30:28;17.10;;;11.40;;
21274;SDS011;36472;52.170;20.884;2023-02-28T01:32:57;19.23;;;11.23;;
21274;SDS011;36472;52.170;20.884;2023-02-28T01:35:26;17.77;;;11.43;;
21274;SDS011;36472;52.170;20.884;2023-02-28T01:37:56;16.57;;;11.30;;
21274;SDS011;36472;52.170;20.884;2023-02-28T01:40:41;16.73;;;11.83;;
21274;SDS011;36472;52.170;20.884;2023-02-28T01:43:12;15.47;;;11.07;;
21274;SDS011;36472;52.170;20.884;2023-02-28T01:45:50;19.73;;;12.90;;
21274;SDS011;36472;52.170;20.884;2023-02-28T01:48:21;21.73;;;12.13;;
21274;SDS011;36472;52.170;20.884;2023-02-28T01:50:55;20.50;;;12.07;;
21274;SDS011;36472;52.170;20.884;2023-02-28T01:53:39;17.40;;;11.10;;
21274;SDS011;36472;52.170;20.884;2023-02-28T01:56:13;18.20;;;11.87;;
21274;SDS011;36472;52.170;20.884;2023-02-28T01:58:52;19.40;;;12.20;;
21274;SDS011;36472;52.170;20.884;2023-02-28T02:01:23;18.47;;;12.43;;
21274;SDS011;36472;52.170;20.884;2023-02-28T02:03:56;19.33;;;12.43;;
21274;SDS011;36472;52.170;20.884;2023-02-28T02:06:31;19.90;;;12.63;;
21274;SDS011;36472;52.170;20.884;2023-02-28T02:09:11;20.87;;;12.63;;
21274;SDS011;36472;52.170;20.884;2023-02-28T02:11:41;19.53;;;13.07;;
21274;SDS011;36472;52.170;20.884;2023-02-28T02:14:21;23.83;;;14.17;;
21274;SDS011;36472;52.170;20.884;2023-02-28T02:17:18;20.07;;;12.87;;
21274;SDS011;36472;52.170;20.884;2023-02-28T02:20:11;20.10;;;13.50;;
21274;SDS011;36472;52.170;20.884;2023-02-28T02:23:26;22.60;;;13.33;;
21274;SDS011;36472;52.170;20.884;2023-02-28T02:26:43;23.00;;;13.47;;
21274;SDS011;36472;52.170;20.884;2023-02-28T02:36:09;21.87;;;13.57;;
21274;SDS011;36472;52.170;20.884;2023-02-28T02:38:47;23.20;;;15.20;;
21274;SDS011;36472;52.170;20.884;2023-02-28T02:41:26;23.27;;;14.93;;
21274;SDS011;36472;52.170;20.884;2023-02-28T02:44:06;22.80;;;13.53;;
21274;SDS011;36472;52.170;20.884;2023-02-28T02:46:45;21.67;;;14.13;;
21274;SDS011;36472;52.170;20.884;2023-02-28T02:49:19;22.07;;;14.77;;
21274;SDS011;36472;52.170;20.884;2023-02-28T02:51:56;24.90;;;15.17;;
21274;SDS011;36472;52.170;20.884;2023-02-28T02:54:33;22.03;;;14.13;;
21274;SDS011;36472;52.170;20.884;2023-02-28T02:57:05;22.00;;;14.80;;
21274;SDS011;36472;52.170;20.884;2023-02-28T02:59:41;23.57;;;14.43;;
21274;SDS011;36472;52.170;20.884;2023-02-28T03:02:12;26.83;;;15.33;;
21274;SDS011;36472;52.170;20.884;2023-02-28T03:04:46;24.57;;;15.47;;
21274;SDS011;36472;52.170;20.884;2023-02-28T03:07:22;25.07;;;15.30;;
21274;SDS011;36472;52.170;20.884;2023-02-28T03:09:51;24.53;;;16.70;;
21274;SDS011;36472;52.170;20.884;2023-02-28T03:12:23;25.70;;;15.73;;
21274;SDS011;36472;52.170;20.884;2023-02-28T03:15:05;25.00;;;15.47;;
21274;SDS011;36472;52.170;20.884;2023-02-28T03:17:49;28.03;;;16.47;;
21274;SDS011;36472;52.170;20.884;2023-02-28T03:20:35;24.60;;;15.83;;
21274;SDS011;36472;52.170;20.884;2023-02-28T03:23:14;26.73;;;15.80;;
21274;SDS011;36472;52.170;20.884;2023-02-28T03:25:54;24.50;;;15.93;;
21274;SDS011;36472;52.170;20.884;2023-02-28T03:28:31;27.13;;;16.73;;
21274;SDS011;36472;52.170;20.884;2023-02-28T03:31:10;27.43;;;16.30;;
21274;SDS011;36472;52.170;20.884;2023-02-28T03:33:48;23.70;;;15.57;;
21274;SDS011;36472;52.170;20.884;2023-02-28T03:36:27;28.47;;;16.13;;
21274;SDS011;36472;52.170;20.884;2023-02-28T03:39:05;28.43;;;16.47;;
21274;SDS011;36472;52.170;20.884;2023-02-28T03:41:40;26.40;;;15.73;;
21274;SDS011;36472;52.170;20.884;2023-02-28T03:44:17;26.03;;;15.47;;
21274;SDS011;36472;52.170;20.884;2023-02-28T03:46:56;27.30;;;15.80;;
21274;SDS011;36472;52.170;20.884;2023-02-28T03:49:32;25.23;;;15.90;;
21274;SDS011;36472;52.170;20.884;2023-02-28T03:52:10;23.43;;;14.97;;
21274;SDS011;36472;52.170;20.884;2023-02-28T03:54:41;26.27;;;15.67;;
21274;SDS011;36472;52.170;20.884;2023-02-28T03:57:20;24.63;;;16.23;;
21274;SDS011;36472;52.170;20.884;2023-02-28T04:00:02;23.63;;;14.90;;
21274;SDS011;36472;52.170;20.884;2023-02-28T04:02:39;25.63;;;15.27;;
21274;SDS011;36472;52.170;20.884;2023-02-28T04:05:08;23.77;;;15.00;;
21274;SDS011;36472;52.170;20.884;2023-02-28T04:07:38;25.47;;;14.67;;
21274;SDS011;36472;52.170;20.884;2023-02-28T04:10:08;22.77;;;15.33;;
21274;SDS011;36472;52.170;20.884;2023-02-28T04:12:39;28.03;;;15.70;;
21274;SDS011;36472;52.170;20.884;2023-02-28T04:15:08;22.57;;;14.80;;
21274;SDS011;36472;52.170;20.884;2023-02-28T04:17:38;23.40;;;14.50;;
21274;SDS011;36472;52.170;20.884;2023-02-28T04:20:07;23.40;;;15.63;;
21274;SDS011;36472;52.170;20.884;2023-02-28T04:22:38;23.73;;;14.17;;
21274;SDS011;36472;52.170;20.884;2023-02-28T04:25:09;23.73;;;14.87;;
21274;SDS011;36472;52.170;20.884;2023-02-28T04:27:38;23.73;;;16.23;;
21274;SDS011;36472;52.170;20.884;2023-02-28T04:30:07;26.60;;;16.97;;
21274;SDS011;36472;52.170;20.884;2023-02-28T04:32:37;23.30;;;14.47;;
21274;SDS011;36472;52.170;20.884;2023-02-28T04:35:07;22.33;;;14.73;;
21274;SDS011;36472;52.170;20.884;2023-02-28T04:37:38;23.17;;;15.13;;
21274;SDS011;36472;52.170;20.884;2023-02-28T04:40:09;26.77;;;14.77;;
21274;SDS011;36472;52.170;20.884;2023-02-28T04:42:39;22.37;;;15.10;;
21274;SDS011;36472;52.170;20.884;2023-02-28T04:45:08;29.87;;;17.40;;
21274;SDS011;36472;52.170;20.884;2023-02-28T04:47:38;36.70;;;20.00;;
21274;SDS011;36472;52.170;20.884;2023-02-28T04:50:07;39.07;;;22.53;;
21274;SDS011;36472;52.170;20.884;2023-02-28T04:52:37;31.17;;;19.10;;
21274;SDS011;36472;52.170;20.884;2023-02-28T04:55:07;31.33;;;18.60;;
21274;SDS011;36472;52.170;20.884;2023-02-28T04:57:38;31.77;;;19.13;;
21274;SDS011;36472;52.170;20.884;2023-02-28T05:00:09;31.83;;;18.80;;
21274;SDS011;36472;52.170;20.884;2023-02-28T05:02:43;30.90;;;18.23;;
21274;SDS011;36472;52.170;20.884;2023-02-28T05:05:12;31.70;;;18.07;;
21274;SDS011;36472;52.170;20.884;2023-02-28T05:07:45;32.90;;;18.33;;
21274;SDS011;36472;52.170;20.884;2023-02-28T05:10:15;33.73;;;18.83;;
21274;SDS011;36472;52.170;20.884;2023-02-28T05:12:45;34.50;;;18.70;;
21274;SDS011;36472;52.170;20.884;2023-02-28T05:15:15;28.97;;;19.20;;
21274;SDS011;36472;52.170;20.884;2023-02-28T05:17:45;37.10;;;19.80;;
21274;SDS011;36472;52.170;20.884;2023-02-28T05:20:14;36.13;;;21.37;;
21274;SDS011;36472;52.170;20.884;2023-02-28T05:22:44;33.60;;;19.10;;
21274;SDS011;36472;52.170;20.884;2023-02-28T05:25:15;40.73;;;21.90;;
21274;SDS011;36472;52.170;20.884;2023-02-28T05:27:48;48.30;;;23.17;;
21274;SDS011;36472;52.170;20.884;2023-02-28T05:30:17;42.67;;;24.63;;
21274;SDS011;36472;52.170;20.884;2023-02-28T05:32:49;40.63;;;22.70;;
21274;SDS011;36472;52.170;20.884;2023-02-28T05:35:19;42.63;;;22.53;;
21274;SDS011;36472;52.170;20.884;2023-02-28T05:37:48;41.67;;;23.60;;
21274;SDS011;36472;52.170;20.884;2023-02-28T05:40:19;39.27;;;22.23;;
21274;SDS011;36472;52.170;20.884;2023-02-28T05:42:49;46.03;;;25.30;;
21274;SDS011;36472;52.170;20.884;2023-02-28T05:45:18;47.40;;;24.13;;
21274;SDS011;36472;52.170;20.884;2023-02-28T05:47:47;42.63;;;22.57;;
21274;SDS011;36472;52.170;20.884;2023-02-28T05:50:16;40.37;;;23.03;;
21274;SDS011;36472;52.170;20.884;2023-02-28T05:52:48;40.87;;;21.30;;
21274;SDS011;36472;52.170;20.884;2023-02-28T05:55:19;42.60;;;22.63;;
21274;SDS011;36472;52.170;20.884;2023-02-28T05:57:48;39.90;;;23.87;;
21274;SDS011;36472;52.170;20.884;2023-02-28T06:00:17;43.33;;;24.67;;
21274;SDS011;36472;52.170;20.884;2023-02-28T06:02:47;41.10;;;21.40;;
21274;SDS011;36472;52.170;20.884;2023-02-28T06:05:16;34.67;;;20.83;;
21274;SDS011;36472;52.170;20.884;2023-02-28T06:07:46;37.90;;;20.60;;
21274;SDS011;36472;52.170;20.884;2023-02-28T06:10:15;35.67;;;20.47;;
21274;SDS011;36472;52.170;20.884;2023-02-28T06:12:46;35.17;;;20.17;;
21274;SDS011;36472;52.170;20.884;2023-02-28T06:15:15;37.60;;;21.00;;
21274;SDS011;36472;52.170;20.884;2023-02-28T06:17:45;35.10;;;20.03;;
21274;SDS011;36472;52.170;20.884;2023-02-28T06:20:13;33.83;;;20.60;;
21274;SDS011;36472;52.170;20.884;2023-02-28T06:22:43;33.93;;;18.03;;
21274;SDS011;36472;52.170;20.884;2023-02-28T06:25:12;37.50;;;19.00;;
21274;SDS011;36472;52.170;20.884;2023-02-28T06:27:41;35.20;;;19.60;;
21274;SDS011;36472;52.170;20.884;2023-02-28T06:30:12;36.23;;;20.00;;
21274;SDS011;36472;52.170;20.884;2023-02-28T06:32:41;36.03;;;20.43;;
21274;SDS011;36472;52.170;20.884;2023-02-28T06:35:10;33.77;;;19.83;;
21274;SDS011;36472;52.170;20.884;2023-02-28T06:37:40;30.77;;;18.70;;
21274;SDS011;36472;52.170;20.884;2023-02-28T06:40:11;31.53;;;18.23;;
21274;SDS011;36472;52.170;20.884;2023-02-28T06:42:41;29.37;;;17.17;;
21274;SDS011;36472;52.170;20.884;2023-02-28T06:45:11;33.20;;;17.73;;
21274;SDS011;36472;52.170;20.884;2023-02-28T06:47:41;29.30;;;16.00;;
21274;SDS011;36472;52.170;20.884;2023-02-28T06:50:11;25.20;;;14.87;;
21274;SDS011;36472;52.170;20.884;2023-02-28T06:52:41;21.23;;;14.27;;
21274;SDS011;36472;52.170;20.884;2023-02-28T06:55:10;23.43;;;14.83;;
21274;SDS011;36472;52.170;20.884;2023-02-28T06:57:39;28.33;;;15.80;;
21274;SDS011;36472;52.170;20.884;2023-02-28T07:00:08;25.37;;;15.50;;
21274;SDS011;36472;52.170;20.884;2023-02-28T07:02:41;26.37;;;15.70;;
21274;SDS011;36472;52.170;20.884;2023-02-28T07:05:10;26.97;;;16.47;;
21274;SDS011;36472;52.170;20.884;2023-02-28T07:07:39;22.33;;;14.20;;
21274;SDS011;36472;52.170;20.884;2023-02-28T07:10:11;24.37;;;14.70;;
21274;SDS011;36472;52.170;20.884;2023-02-28T07:12:46;18.63;;;10.93;;
21274;SDS011;36472;52.170;20.884;2023-02-28T07:15:16;20.83;;;11.63;;
21274;SDS011;36472;52.170;20.884;2023-02-28T07:17:45;15.97;;;10.33;;
21274;SDS011;36472;52.170;20.884;2023-02-28T07:20:14;19.63;;;9.80;;
21274;SDS011;36472;52.170;20.884;2023-02-28T07:22:43;20.67;;;11.38;;
21274;SDS011;36472;52.170;20.884;2023-02-28T07:25:13;16.87;;;10.30;;
21274;SDS011;36472;52.170;20.884;2023-02-28T07:27:42;22.47;;;14.67;;
21274;SDS011;36472;52.170;20.884;2023-02-28T07:30:11;18.20;;;11.53;;
21274;SDS011;36472;52.170;20.884;2023-02-28T07:32:42;25.00;;;15.43;;
21274;SDS011;36472;52.170;20.884;2023-02-28T07:35:11;22.50;;;14.23;;
21274;SDS011;36472;52.170;20.884;2023-02-28T07:37:42;15.87;;;10.03;;
21274;SDS011;36472;52.170;20.884;2023-02-28T07:40:11;50.33;;;30.07;;
21274;SDS011;36472;52.170;20.884;2023-02-28T07:42:41;22.00;;;12.83;;
21274;SDS011;36472;52.170;20.884;2023-02-28T07:45:12;15.00;;;10.43;;
21274;SDS011;36472;52.170;20.884;2023-02-28T07:47:42;19.90;;;12.40;;
21274;SDS011;36472;52.170;20.884;2023-02-28T07:50:13;16.75;;;12.07;;
21274;SDS011;36472;52.170;20.884;2023-02-28T07:52:44;14.55;;;8.95;;
21274;SDS011;36472;52.170;20.884;2023-02-28T07:55:13;50.85;;;28.88;;
21274;SDS011;36472;52.170;20.884;2023-02-28T07:57:43;16.35;;;9.40;;
21274;SDS011;36472;52.170;20.884;2023-02-28T08:00:13;15.38;;;9.10;;
21274;SDS011;36472;52.170;20.884;2023-02-28T08:02:43;13.00;;;8.70;;
21274;SDS011;36472;52.170;20.884;2023-02-28T08:05:13;12.65;;;8.00;;
21274;SDS011;36472;52.170;20.884;2023-02-28T08:07:42;10.40;;;6.80;;
21274;SDS011;36472;52.170;20.884;2023-02-28T08:10:11;6.75;;;5.65;;
21274;SDS011;36472;52.170;20.884;2023-02-28T08:12:40;10.95;;;7.53;;
21274;SDS011;36472;52.170;20.884;2023-02-28T08:15:09;12.88;;;7.88;;
21274;SDS011;36472;52.170;20.884;2023-02-28T08:17:38;10.07;;;7.13;;
21274;SDS011;36472;52.170;20.884;2023-02-28T08:20:09;8.55;;;6.22;;
21274;SDS011;36472;52.170;20.884;2023-02-28T08:22:40;11.70;;;7.53;;
21274;SDS011;36472;52.170;20.884;2023-02-28T08:25:12;11.02;;;8.05;;
21274;SDS011;36472;52.170;20.884;2023-02-28T08:27:40;10.35;;;7.15;;
21274;SDS011;36472;52.170;20.884;2023-02-28T08:30:10;11.38;;;8.15;;
21274;SDS011;36472;52.170;20.884;2023-02-28T08:32:40;11.68;;;8.13;;
21274;SDS011;36472;52.170;20.884;2023-02-28T08:35:11;11.20;;;8.20;;
21274;SDS011;36472;52.170;20.884;2023-02-28T08:37:40;10.57;;;8.10;;
21274;SDS011;36472;52.170;20.884;2023-02-28T08:40:09;11.82;;;8.80;;
21274;SDS011;36472;52.170;20.884;2023-02-28T08:42:44;12.55;;;8.60;;
21274;SDS011;36472;52.170;20.884;2023-02-28T08:45:14;9.75;;;7.82;;
21274;SDS011;36472;52.170;20.884;2023-02-28T08:47:43;10.77;;;8.10;;
21274;SDS011;36472;52.170;20.884;2023-02-28T08:50:13;10.65;;;8.23;;
21274;SDS011;36472;52.170;20.884;2023-02-28T08:52:43;10.88;;;7.75;;
21274;SDS011;36472;52.170;20.884;2023-02-28T08:55:12;11.00;;;8.32;;
21274;SDS011;36472;52.170;20.884;2023-02-28T08:57:42;9.93;;;7.63;;
21274;SDS011;36472;52.170;20.884;2023-02-28T09:00:12;10.57;;;7.70;;
21274;SDS011;36472;52.170;20.884;2023-02-28T09:02:41;11.65;;;7.80;;
21274;SDS011;36472;52.170;20.884;2023-02-28T09:05:10;11.70;;;8.07;;
21274;SDS011;36472;52.170;20.884;2023-02-28T09:07:41;8.95;;;7.35;;
21274;SDS011;36472;52.170;20.884;2023-02-28T09:10:10;9.25;;;7.43;;
21274;SDS011;36472;52.170;20.884;2023-02-28T09:12:39;10.45;;;7.43;;
21274;SDS011;36472;52.170;20.884;2023-02-28T09:15:09;8.95;;;7.30;;
21274;SDS011;36472;52.170;20.884;2023-02-28T09:17:38;11.48;;;7.47;;
21274;SDS011;36472;52.170;20.884;2023-02-28T09:20:09;12.88;;;7.97;;
21274;SDS011;36472;52.170;20.884;2023-02-28T09:22:41;8.85;;;7.63;;
21274;SDS011;36472;52.170;20.884;2023-02-28T09:25:10;11.93;;;8.20;;
21274;SDS011;36472;52.170;20.884;2023-02-28T09:27:39;16.50;;;9.27;;
21274;SDS011;36472;52.170;20.884;2023-02-28T09:30:09;13.27;;;9.90;;
21274;SDS011;36472;52.170;20.884;2023-02-28T09:32:40;11.63;;;7.78;;
21274;SDS011;36472;52.170;20.884;2023-02-28T09:35:09;10.02;;;7.32;;
21274;SDS011;36472;52.170;20.884;2023-02-28T09:37:41;13.73;;;8.65;;
21274;SDS011;36472;52.170;20.884;2023-02-28T09:40:11;12.52;;;8.05;;
21274;SDS011;36472;52.170;20.884;2023-02-28T09:42:44;10.60;;;8.05;;
21274;SDS011;36472;52.170;20.884;2023-02-28T09:45:19;9.10;;;7.88;;
21274;SDS011;36472;52.170;20.884;2023-02-28T09:47:55;11.43;;;8.10;;
21274;SDS011;36472;52.170;20.884;2023-02-28T09:50:33;12.88;;;7.88;;
21274;SDS011;36472;52.170;20.884;2023-02-28T09:53:11;12.43;;;7.47;;
21274;SDS011;36472;52.170;20.884;2023-02-28T09:55:50;13.48;;;8.70;;
21274;SDS011;36472;52.170;20.884;2023-02-28T09:58:26;11.77;;;9.05;;
21274;SDS011;36472;52.170;20.884;2023-02-28T10:01:03;9.82;;;8.50;;
21274;SDS011;36472;52.170;20.884;2023-02-28T10:03:40;11.25;;;8.38;;
21274;SDS011;36472;52.170;20.884;2023-02-28T10:06:19;12.15;;;9.20;;
21274;SDS011;36472;52.170;20.884;2023-02-28T10:08:56;12.68;;;9.48;;
21274;SDS011;36472;52.170;20.884;2023-02-28T10:11:32;11.55;;;9.32;;
21274;SDS011;36472;52.170;20.884;2023-02-28T10:14:06;10.38;;;8.35;;
21274;SDS011;36472;52.170;20.884;2023-02-28T10:16:45;12.32;;;9.80;;
21274;SDS011;36472;52.170;20.884;2023-02-28T10:19:20;14.93;;;10.48;;
21274;SDS011;36472;52.170;20.884;2023-02-28T10:22:00;13.90;;;10.30;;
21274;SDS011;36472;52.170;20.884;2023-02-28T10:24:40;13.95;;;9.55;;
21274;SDS011;36472;52.170;20.884;2023-02-28T10:27:13;13.20;;;10.18;;
21274;SDS011;36472;52.170;20.884;2023-02-28T10:29:46;13.13;;;10.38;;
21274;SDS011;36472;52.170;20.884;2023-02-28T10:32:18;15.25;;;10.30;;
21274;SDS011;36472;52.170;20.884;2023-02-28T10:34:51;16.05;;;10.43;;
21274;SDS011;36472;52.170;20.884;2023-02-28T10:37:25;12.00;;;9.80;;
21274;SDS011;36472;52.170;20.884;2023-02-28T10:39:56;15.20;;;11.35;;
21274;SDS011;36472;52.170;20.884;2023-02-28T10:42:25;13.50;;;10.55;;
21274;SDS011;36472;52.170;20.884;2023-02-28T10:45:06;12.88;;;10.05;;
21274;SDS011;36472;52.170;20.884;2023-02-28T10:47:48;12.25;;;10.32;;
21274;SDS011;36472;52.170;20.884;2023-02-28T10:50:35;12.02;;;9.98;;
21274;SDS011;36472;52.170;20.884;2023-02-28T10:53:16;12.32;;;9.73;;
21274;SDS011;36472;52.170;20.884;2023-02-28T10:56:12;12.90;;;9.63;;
21274;SDS011;36472;52.170;20.884;2023-02-28T10:58:50;15.05;;;9.55;;
21274;SDS011;36472;52.170;20.884;2023-02-28T11:01:23;12.05;;;9.43;;
21274;SDS011;36472;52.170;20.884;2023-02-28T11:04:05;14.38;;;10.25;;
21274;SDS011;36472;52.170;20.884;2023-02-28T11:06:48;11.80;;;10.07;;
21274;SDS011;36472;52.170;20.884;2023-02-28T11:09:27;11.00;;;8.40;;
21274;SDS011;36472;52.170;20.884;2023-02-28T11:12:03;13.07;;;8.88;;
21274;SDS011;36472;52.170;20.884;2023-02-28T11:14:37;12.50;;;9.48;;
21274;SDS011;36472;52.170;20.884;2023-02-28T11:17:19;10.57;;;8.65;;
21274;SDS011;36472;52.170;20.884;2023-02-28T11:19:52;10.23;;;8.77;;
21274;SDS011;36472;52.170;20.884;2023-02-28T11:22:24;12.57;;;9.63;;
21274;SDS011;36472;52.170;20.884;2023-02-28T11:25:00;11.02;;;8.90;;
21274;SDS011;36472;52.170;20.884;2023-02-28T11:27:46;9.13;;;8.20;;
21274;SDS011;36472;52.170;20.884;2023-02-28T11:30:24;11.02;;;9.20;;
21274;SDS011;36472;52.170;20.884;2023-02-28T11:33:18;11.43;;;9.13;;
21274;SDS011;36472;52.170;20.884;2023-02-28T11:35:55;12.45;;;9.05;;
21274;SDS011;36472;52.170;20.884;2023-02-28T11:38:29;10.57;;;8.95;;
21274;SDS011;36472;52.170;20.884;2023-02-28T11:41:27;13.65;;;9.38;;
21274;SDS011;36472;52.170;20.884;2023-02-28T11:44:18;11.00;;;8.80;;
21274;SDS011;36472;52.170;20.884;2023-02-28T11:47:07;10.73;;;8.80;;
21274;SDS011;36472;52.170;20.884;2023-02-28T11:49:47;10.55;;;7.60;;
21274;SDS011;36472;52.170;20.884;2023-02-28T11:52:34;10.50;;;8.40;;
21274;SDS011;36472;52.170;20.884;2023-02-28T11:55:17;11.02;;;8.32;;
21274;SDS011;36472;52.170;20.884;2023-02-28T11:57:57;8.73;;;7.40;;
21274;SDS011;36472;52.170;20.884;2023-02-28T12:01:00;10.23;;;8.38;;
21274;SDS011;36472;52.170;20.884;2023-02-28T12:04:15;11.20;;;8.02;;
21274;SDS011;36472;52.170;20.884;2023-02-28T12:06:56;9.57;;;8.50;;
21274;SDS011;36472;52.170;20.884;2023-02-28T12:09:44;10.93;;;9.43;;
21274;SDS011;36472;52.170;20.884;2023-02-28T12:12:32;11.15;;;9.10;;
21274;SDS011;36472;52.170;20.884;2023-02-28T12:15:22;9.90;;;8.82;;
21274;SDS011;36472;52.170;20.884;2023-02-28T12:18:24;9.40;;;8.40;;
21274;SDS011;36472;52.170;20.884;2023-02-28T12:21:23;11.27;;;8.88;;
21274;SDS011;36472;52.170;20.884;2023-02-28T12:24:24;11.82;;;8.90;;
21274;SDS011;36472;52.170;20.884;2023-02-28T12:27:21;10.77;;;9.38;;
21274;SDS011;36472;52.170;20.884;2023-02-28T12:29:56;12.80;;;9.57;;
21274;SDS011;36472;52.170;20.884;2023-02-28T12:32:31;11.02;;;9.45;;
21274;SDS011;36472;52.170;20.884;2023-02-28T12:35:11;11.73;;;10.43;;
21274;SDS011;36472;52.170;20.884;2023-02-28T12:37:47;12.85;;;10.68;;
21274;SDS011;36472;52.170;20.884;2023-02-28T12:40:25;13.48;;;11.15;;
21274;SDS011;36472;52.170;20.884;2023-02-28T12:43:07;15.95;;;11.52;;
21274;SDS011;36472;52.170;20.884;2023-02-28T12:45:40;15.15;;;11.38;;
21274;SDS011;36472;52.170;20.884;2023-02-28T12:48:18;13.88;;;10.15;;
21274;SDS011;36472;52.170;20.884;2023-02-28T12:50:56;12.88;;;10.85;;
21274;SDS011;36472;52.170;20.884;2023-02-28T12:53:31;14.20;;;11.77;;
21274;SDS011;36472;52.170;20.884;2023-02-28T12:56:24;13.98;;;11.82;;
21274;SDS011;36472;52.170;20.884;2023-02-28T12:59:10;12.90;;;10.52;;
21274;SDS011;36472;52.170;20.884;2023-02-28T13:08:59;14.25;;;11.00;;
21274;SDS011;36472;52.170;20.884;2023-02-28T13:11:40;15.02;;;10.80;;
21274;SDS011;36472;52.170;20.884;2023-02-28T13:14:22;17.30;;;11.27;;
21274;SDS011;36472;52.170;20.884;2023-02-28T13:17:01;16.40;;;10.60;;
21274;SDS011;36472;52.170;20.884;2023-02-28T13:19:40;16.00;;;11.30;;
21274;SDS011;36472;52.170;20.884;2023-02-28T13:22:20;14.63;;;11.43;;
21274;SDS011;36472;52.170;20.884;2023-02-28T13:44:23;13.98;;;10.10;;
21274;SDS011;36472;52.170;20.884;2023-02-28T13:52:51;13.25;;;10.25;;
21274;SDS011;36472;52.170;20.884;2023-02-28T13:55:46;14.32;;;11.25;;
21274;SDS011;36472;52.170;20.884;2023-02-28T13:58:39;17.90;;;11.95;;
21274;SDS011;36472;52.170;20.884;2023-02-28T14:04:44;15.48;;;11.05;;
21274;SDS011;36472;52.170;20.884;2023-02-28T14:07:30;14.73;;;10.30;;
21274;SDS011;36472;52.170;20.884;2023-02-28T14:10:07;15.02;;;10.57;;
21274;SDS011;36472;52.170;20.884;2023-02-28T14:12:53;16.88;;;10.93;;
21274;SDS011;36472;52.170;20.884;2023-02-28T14:15:40;14.65;;;10.10;;
21274;SDS011;36472;52.170;20.884;2023-02-28T14:21:09;14.45;;;10.02;;
21274;SDS011;36472;52.170;20.884;2023-02-28T14:30:19;16.42;;;10.35;;
21274;SDS011;36472;52.170;20.884;2023-02-28T14:33:22;14.32;;;9.32;;
21274;SDS011;36472;52.170;20.884;2023-02-28T14:38:50;12.18;;;10.00;;
21274;SDS011;36472;52.170;20.884;2023-02-28T14:41:27;12.88;;;9.27;;
21274;SDS011;36472;52.170;20.884;2023-02-28T14:44:03;16.35;;;10.23;;
21274;SDS011;36472;52.170;20.884;2023-02-28T14:46:47;14.15;;;9.75;;
21274;SDS011;36472;52.170;20.884;2023-02-28T14:49:20;13.75;;;9.40;;
21274;SDS011;36472;52.170;20.884;2023-02-28T14:52:02;13.80;;;9.75;;
21274;SDS011;36472;52.170;20.884;2023-02-28T14:54:38;17.50;;;10.68;;
21274;SDS011;36472;52.170;20.884;2023-02-28T14:57:19;13.95;;;10.50;;
21274;SDS011;36472;52.170;20.884;2023-02-28T14:59:58;14.75;;;10.43;;
21274;SDS011;36472;52.170;20.884;2023-02-28T15:02:33;16.60;;;10.52;;
21274;SDS011;36472;52.170;20.884;2023-02-28T15:05:10;13.50;;;9.38;;
21274;SDS011;36472;52.170;20.884;2023-02-28T15:08:00;14.95;;;9.65;;
21274;SDS011;36472;52.170;20.884;2023-02-28T15:10:39;14.70;;;10.38;;
21274;SDS011;36472;52.170;20.884;2023-02-28T15:13:12;13.95;;;9.52;;
21274;SDS011;36472;52.170;20.884;2023-02-28T15:15:44;12.25;;;9.18;;
21274;SDS011;36472;52.170;20.884;2023-02-28T15:18:33;14.70;;;9.38;;
21274;SDS011;36472;52.170;20.884;2023-02-28T15:21:15;13.40;;;9.15;;
21274;SDS011;36472;52.170;20.884;2023-02-28T15:23:49;13.68;;;10.15;;
21274;SDS011;36472;52.170;20.884;2023-02-28T15:26:23;17.30;;;11.40;;
21274;SDS011;36472;52.170;20.884;2023-02-28T15:28:58;18.67;;;10.93;;
21274;SDS011;36472;52.170;20.884;2023-02-28T15:31:35;15.25;;;10.35;;
21274;SDS011;36472;52.170;20.884;2023-02-28T15:34:28;14.07;;;10.25;;
21274;SDS011;36472;52.170;20.884;2023-02-28T15:37:33;17.38;;;10.80;;
21274;SDS011;36472;52.170;20.884;2023-02-28T15:40:13;20.45;;;11.80;;
21274;SDS011;36472;52.170;20.884;2023-02-28T15:43:02;14.98;;;11.48;;
21274;SDS011;36472;52.170;20.884;2023-02-28T15:45:37;18.33;;;10.32;;
21274;SDS011;36472;52.170;20.884;2023-02-28T15:48:16;16.67;;;10.40;;
21274;SDS011;36472;52.170;20.884;2023-02-28T15:50:51;17.40;;;10.85;;
21274;SDS011;36472;52.170;20.884;2023-02-28T15:53:23;15.70;;;10.80;;